sensor_id;sensor_type;location;lat;lon;timestamp;P1;durP1;ratioP1;P2;durP2;ratioP2
78664;SDS011;67981;51.022;-2.870;2024-02-15T00:02:16;10.60;;;4.17;;
78664;SDS011;67981;51.022;-2.870;2024-02-15T00:04:42;12.37;;;4.70;;
78664;SDS011;67981;51.022;-2.870;2024-02-15T00:07:07;9.95;;;4.40;;
78664;SDS011;67981;51.022;-2.870;2024-02-15T00:09:33;8.27;;;4.20;;
78664;SDS011;67981;51.022;-2.870;2024-02-15T00:11:59;12.57;;;4.68;;
78664;SDS011;67981;51.022;-2.870;2024-02-15T00:14:25;5.93;;;3.00;;
78664;SDS011;67981;51.022;-2.870;2024-02-15T00:16:50;6.55;;;3.90;;
78664;SDS011;67981;51.022;-2.870;2024-02-15T00:19:15;5.63;;;2.77;;
78664;SDS011;67981;51.022;-2.870;2024-02-15T00:21:45;8.07;;;3.53;;
78664;SDS011;67981;51.022;-2.870;2024-02-15T00:24:11;5.78;;;3.08;;
78664;SDS011;67981;51.022;-2.870;2024-02-15T00:26:36;5.68;;;3.30;;
78664;SDS011;67981;51.022;-2.870;2024-02-15T00:29:01;5.57;;;2.80;;
78664;SDS011;67981;51.022;-2.870;2024-02-15T00:31:27;5.63;;;3.07;;
78664;SDS011;67981;51.022;-2.870;2024-02-15T00:33:52;4.83;;;2.57;;
78664;SDS011;67981;51.022;-2.870;2024-02-15T00:36:19;5.82;;;2.25;;
78664;SDS011;67981;51.022;-2.870;2024-02-15T00:38:44;5.10;;;2.07;;
78664;SDS011;67981;51.022;-2.870;2024-02-15T00:41:10;5.97;;;2.58;;
78664;SDS011;67981;51.022;-2.870;2024-02-15T00:43:35;5.10;;;2.00;;
78664;SDS011;67981;51.022;-2.870;2024-02-15T00:46:00;3.60;;;1.93;;
78664;SDS011;67981;51.022;-2.870;2024-02-15T00:48:26;4.10;;;2.07;;
78664;SDS011;67981;51.022;-2.870;2024-02-15T00:50:53;2.85;;;1.40;;
78664;SDS011;67981;51.022;-2.870;2024-02-15T00:53:19;3.30;;;1.73;;
78664;SDS011;67981;51.022;-2.870;2024-02-15T00:55:45;3.22;;;1.63;;
78664;SDS011;67981;51.022;-2.870;2024-02-15T00:58:10;5.87;;;2.60;;
78664;SDS011;67981;51.022;-2.870;2024-02-15T01:00:35;4.50;;;2.00;;
78664;SDS011;67981;51.022;-2.870;2024-02-15T01:03:01;3.13;;;1.63;;
78664;SDS011;67981;51.022;-2.870;2024-02-15T01:05:26;5.83;;;2.57;;
78664;SDS011;67981;51.022;-2.870;2024-02-15T01:07:51;3.83;;;2.37;;
78664;SDS011;67981;51.022;-2.870;2024-02-15T01:10:17;3.25;;;2.03;;
78664;SDS011;67981;51.022;-2.870;2024-02-15T01:12:42;2.83;;;1.70;;
78664;SDS011;67981;51.022;-2.870;2024-02-15T01:15:09;3.83;;;2.00;;
78664;SDS011;67981;51.022;-2.870;2024-02-15T01:17:34;3.10;;;1.88;;
78664;SDS011;67981;51.022;-2.870;2024-02-15T01:19:59;4.13;;;2.27;;
78664;SDS011;67981;51.022;-2.870;2024-02-15T01:22:25;3.87;;;1.90;;
78664;SDS011;67981;51.022;-2.870;2024-02-15T01:24:52;4.57;;;2.58;;
78664;SDS011;67981;51.022;-2.870;2024-02-15T01:27:17;3.88;;;2.28;;
78664;SDS011;67981;51.022;-2.870;2024-02-15T01:29:42;3.87;;;1.70;;
78664;SDS011;67981;51.022;-2.870;2024-02-15T01:32:08;3.70;;;2.22;;
78664;SDS011;67981;51.022;-2.870;2024-02-15T01:34:33;3.53;;;2.23;;
78664;SDS011;67981;51.022;-2.870;2024-02-15T01:36:59;4.60;;;2.37;;
78664;SDS011;67981;51.022;-2.870;2024-02-15T01:39:24;5.77;;;2.40;;
78664;SDS011;67981;51.022;-2.870;2024-02-15T01:41:49;4.43;;;2.57;;
78664;SDS011;67981;51.022;-2.870;2024-02-15T01:44:21;3.72;;;2.10;;
78664;SDS011;67981;51.022;-2.870;2024-02-15T01:46:46;3.35;;;2.25;;
78664;SDS011;67981;51.022;-2.870;2024-02-15T01:49:13;5.63;;;2.55;;
78664;SDS011;67981;51.022;-2.870;2024-02-15T01:51:38;4.43;;;2.17;;
78664;SDS011;67981;51.022;-2.870;2024-02-15T01:54:06;3.50;;;2.08;;
78664;SDS011;67981;51.022;-2.870;2024-02-15T01:56:31;5.75;;;3.00;;
78664;SDS011;67981;51.022;-2.870;2024-02-15T01:58:57;4.47;;;2.13;;
78664;SDS011;67981;51.022;-2.870;2024-02-15T02:01:22;4.97;;;2.40;;
78664;SDS011;67981;51.022;-2.870;2024-02-15T02:03:48;5.28;;;2.10;;
78664;SDS011;67981;51.022;-2.870;2024-02-15T02:06:13;7.55;;;2.47;;
78664;SDS011;67981;51.022;-2.870;2024-02-15T02:08:39;4.95;;;2.33;;
78664;SDS011;67981;51.022;-2.870;2024-02-15T02:11:04;4.13;;;2.33;;
78664;SDS011;67981;51.022;-2.870;2024-02-15T02:13:29;5.40;;;2.40;;
78664;SDS011;67981;51.022;-2.870;2024-02-15T02:15:54;6.03;;;2.63;;
78664;SDS011;67981;51.022;-2.870;2024-02-15T02:18:21;4.68;;;2.33;;
78664;SDS011;67981;51.022;-2.870;2024-02-15T02:20:46;5.13;;;2.53;;
78664;SDS011;67981;51.022;-2.870;2024-02-15T02:23:15;4.63;;;2.47;;
78664;SDS011;67981;51.022;-2.870;2024-02-15T02:25:41;4.80;;;2.60;;
78664;SDS011;67981;51.022;-2.870;2024-02-15T02:28:08;5.43;;;3.03;;
78664;SDS011;67981;51.022;-2.870;2024-02-15T02:30:33;5.82;;;2.72;;
78664;SDS011;67981;51.022;-2.870;2024-02-15T02:32:58;3.07;;;1.90;;
78664;SDS011;67981;51.022;-2.870;2024-02-15T02:35:24;4.95;;;3.03;;
78664;SDS011;67981;51.022;-2.870;2024-02-15T02:37:50;5.38;;;2.65;;
78664;SDS011;67981;51.022;-2.870;2024-02-15T02:40:15;5.38;;;2.22;;
78664;SDS011;67981;51.022;-2.870;2024-02-15T02:45:16;4.63;;;2.17;;
78664;SDS011;67981;51.022;-2.870;2024-02-15T02:47:41;3.53;;;2.30;;
78664;SDS011;67981;51.022;-2.870;2024-02-15T02:50:07;5.27;;;2.13;;
78664;SDS011;67981;51.022;-2.870;2024-02-15T02:52:33;3.15;;;2.08;;
78664;SDS011;67981;51.022;-2.870;2024-02-15T02:54:58;3.83;;;2.08;;
78664;SDS011;67981;51.022;-2.870;2024-02-15T02:57:24;3.60;;;1.88;;
78664;SDS011;67981;51.022;-2.870;2024-02-15T02:59:49;5.88;;;3.05;;
78664;SDS011;67981;51.022;-2.870;2024-02-15T03:02:14;6.83;;;2.20;;
78664;SDS011;67981;51.022;-2.870;2024-02-15T03:04:39;3.77;;;2.23;;
78664;SDS011;67981;51.022;-2.870;2024-02-15T03:07:06;6.30;;;2.05;;
78664;SDS011;67981;51.022;-2.870;2024-02-15T03:09:31;6.47;;;2.33;;
78664;SDS011;67981;51.022;-2.870;2024-02-15T03:11:56;6.23;;;2.50;;
78664;SDS011;67981;51.022;-2.870;2024-02-15T03:14:22;4.78;;;2.20;;
78664;SDS011;67981;51.022;-2.870;2024-02-15T03:16:47;6.57;;;2.60;;
78664;SDS011;67981;51.022;-2.870;2024-02-15T03:19:12;6.13;;;3.67;;
78664;SDS011;67981;51.022;-2.870;2024-02-15T03:21:38;4.97;;;3.07;;
78664;SDS011;67981;51.022;-2.870;2024-02-15T03:24:03;9.50;;;3.80;;
78664;SDS011;67981;51.022;-2.870;2024-02-15T03:26:31;7.82;;;3.55;;
78664;SDS011;67981;51.022;-2.870;2024-02-15T03:29:05;8.48;;;3.85;;
78664;SDS011;67981;51.022;-2.870;2024-02-15T03:31:30;6.45;;;3.22;;
78664;SDS011;67981;51.022;-2.870;2024-02-15T03:33:59;8.07;;;4.05;;
78664;SDS011;67981;51.022;-2.870;2024-02-15T03:36:25;12.18;;;5.13;;
78664;SDS011;67981;51.022;-2.870;2024-02-15T03:38:50;9.68;;;4.10;;
78664;SDS011;67981;51.022;-2.870;2024-02-15T03:41:18;10.95;;;4.20;;
78664;SDS011;67981;51.022;-2.870;2024-02-15T03:43:44;7.47;;;3.60;;
78664;SDS011;67981;51.022;-2.870;2024-02-15T03:46:09;8.23;;;3.57;;
78664;SDS011;67981;51.022;-2.870;2024-02-15T03:48:37;4.88;;;2.88;;
78664;SDS011;67981;51.022;-2.870;2024-02-15T03:51:02;8.17;;;3.63;;
78664;SDS011;67981;51.022;-2.870;2024-02-15T03:53:28;5.63;;;2.63;;
78664;SDS011;67981;51.022;-2.870;2024-02-15T03:55:56;13.82;;;4.00;;
78664;SDS011;67981;51.022;-2.870;2024-02-15T03:58:21;14.63;;;4.88;;
78664;SDS011;67981;51.022;-2.870;2024-02-15T04:00:47;13.73;;;3.97;;
78664;SDS011;67981;51.022;-2.870;2024-02-15T04:03:12;21.57;;;5.90;;
78664;SDS011;67981;51.022;-2.870;2024-02-15T04:05:37;14.80;;;6.03;;
78664;SDS011;67981;51.022;-2.870;2024-02-15T04:08:03;17.50;;;5.82;;
78664;SDS011;67981;51.022;-2.870;2024-02-15T04:10:30;11.90;;;6.10;;
78664;SDS011;67981;51.022;-2.870;2024-02-15T04:12:55;19.33;;;7.77;;
78664;SDS011;67981;51.022;-2.870;2024-02-15T04:15:23;16.77;;;8.13;;
78664;SDS011;67981;51.022;-2.870;2024-02-15T04:17:48;17.70;;;7.40;;
78664;SDS011;67981;51.022;-2.870;2024-02-15T04:20:18;24.42;;;7.93;;
78664;SDS011;67981;51.022;-2.870;2024-02-15T04:22:43;19.53;;;7.23;;
78664;SDS011;67981;51.022;-2.870;2024-02-15T04:25:09;20.55;;;8.40;;
78664;SDS011;67981;51.022;-2.870;2024-02-15T04:27:43;21.85;;;9.23;;
78664;SDS011;67981;51.022;-2.870;2024-02-15T04:30:09;25.17;;;8.85;;
78664;SDS011;67981;51.022;-2.870;2024-02-15T04:32:35;9.98;;;5.55;;
78664;SDS011;67981;51.022;-2.870;2024-02-15T04:35:01;17.00;;;7.97;;
78664;SDS011;67981;51.022;-2.870;2024-02-15T04:37:26;18.42;;;6.97;;
78664;SDS011;67981;51.022;-2.870;2024-02-15T04:39:53;20.23;;;8.73;;
78664;SDS011;67981;51.022;-2.870;2024-02-15T04:42:19;19.13;;;7.17;;
78664;SDS011;67981;51.022;-2.870;2024-02-15T04:44:44;26.65;;;9.18;;
78664;SDS011;67981;51.022;-2.870;2024-02-15T04:47:09;19.60;;;8.53;;
78664;SDS011;67981;51.022;-2.870;2024-02-15T04:49:35;26.53;;;9.97;;
78664;SDS011;67981;51.022;-2.870;2024-02-15T04:52:03;20.42;;;9.50;;
78664;SDS011;67981;51.022;-2.870;2024-02-15T04:54:29;19.23;;;9.10;;
78664;SDS011;67981;51.022;-2.870;2024-02-15T04:56:54;16.55;;;7.05;;
78664;SDS011;67981;51.022;-2.870;2024-02-15T04:59:20;21.90;;;7.95;;
78664;SDS011;67981;51.022;-2.870;2024-02-15T05:01:46;15.75;;;7.20;;
78664;SDS011;67981;51.022;-2.870;2024-02-15T05:04:12;22.60;;;7.50;;
78664;SDS011;67981;51.022;-2.870;2024-02-15T05:06:38;18.25;;;7.57;;
78664;SDS011;67981;51.022;-2.870;2024-02-15T05:09:04;21.57;;;6.37;;
78664;SDS011;67981;51.022;-2.870;2024-02-15T05:11:41;18.52;;;6.93;;
78664;SDS011;67981;51.022;-2.870;2024-02-15T05:14:08;19.55;;;7.25;;
78664;SDS011;67981;51.022;-2.870;2024-02-15T05:16:36;15.85;;;6.85;;
78664;SDS011;67981;51.022;-2.870;2024-02-15T05:19:07;17.27;;;6.65;;
78664;SDS011;67981;51.022;-2.870;2024-02-15T05:21:32;12.45;;;5.57;;
78664;SDS011;67981;51.022;-2.870;2024-02-15T05:23:58;14.93;;;7.03;;
78664;SDS011;67981;51.022;-2.870;2024-02-15T05:26:24;14.70;;;6.07;;
78664;SDS011;67981;51.022;-2.870;2024-02-15T05:28:49;13.15;;;5.80;;
78664;SDS011;67981;51.022;-2.870;2024-02-15T05:31:17;13.82;;;5.13;;
78664;SDS011;67981;51.022;-2.870;2024-02-15T05:33:43;15.30;;;5.72;;
78664;SDS011;67981;51.022;-2.870;2024-02-15T05:36:12;13.52;;;4.50;;
78664;SDS011;67981;51.022;-2.870;2024-02-15T05:38:37;12.25;;;4.50;;
78664;SDS011;67981;51.022;-2.870;2024-02-15T05:41:03;10.07;;;4.22;;
78664;SDS011;67981;51.022;-2.870;2024-02-15T05:43:28;16.42;;;4.20;;
78664;SDS011;67981;51.022;-2.870;2024-02-15T05:45:54;10.55;;;4.22;;
78664;SDS011;67981;51.022;-2.870;2024-02-15T05:48:19;11.50;;;3.88;;
78664;SDS011;67981;51.022;-2.870;2024-02-15T05:50:46;12.80;;;3.63;;
78664;SDS011;67981;51.022;-2.870;2024-02-15T05:53:11;8.83;;;3.43;;
78664;SDS011;67981;51.022;-2.870;2024-02-15T05:55:37;7.87;;;3.63;;
78664;SDS011;67981;51.022;-2.870;2024-02-15T05:58:05;10.48;;;3.70;;
78664;SDS011;67981;51.022;-2.870;2024-02-15T06:00:31;10.80;;;3.92;;
78664;SDS011;67981;51.022;-2.870;2024-02-15T06:02:56;7.37;;;2.93;;
78664;SDS011;67981;51.022;-2.870;2024-02-15T06:05:21;9.98;;;3.03;;
78664;SDS011;67981;51.022;-2.870;2024-02-15T06:07:47;7.33;;;2.40;;
78664;SDS011;67981;51.022;-2.870;2024-02-15T06:10:12;8.90;;;3.70;;
78664;SDS011;67981;51.022;-2.870;2024-02-15T06:12:38;9.73;;;2.65;;
78664;SDS011;67981;51.022;-2.870;2024-02-15T06:15:04;8.30;;;2.90;;
78664;SDS011;67981;51.022;-2.870;2024-02-15T06:17:30;6.90;;;2.33;;
78664;SDS011;67981;51.022;-2.870;2024-02-15T06:19:56;9.40;;;2.92;;
78664;SDS011;67981;51.022;-2.870;2024-02-15T06:22:22;10.60;;;2.92;;
78664;SDS011;67981;51.022;-2.870;2024-02-15T06:24:47;15.57;;;2.72;;
78664;SDS011;67981;51.022;-2.870;2024-02-15T06:27:12;9.63;;;2.73;;
78664;SDS011;67981;51.022;-2.870;2024-02-15T06:29:38;8.07;;;3.37;;
78664;SDS011;67981;51.022;-2.870;2024-02-15T06:32:21;6.38;;;2.50;;
78664;SDS011;67981;51.022;-2.870;2024-02-15T06:35:05;10.27;;;3.88;;
78664;SDS011;67981;51.022;-2.870;2024-02-15T06:37:49;11.88;;;3.25;;
78664;SDS011;67981;51.022;-2.870;2024-02-15T06:40:33;12.93;;;3.80;;
78664;SDS011;67981;51.022;-2.870;2024-02-15T06:42:58;8.93;;;2.93;;
78664;SDS011;67981;51.022;-2.870;2024-02-15T06:45:24;9.43;;;3.60;;
78664;SDS011;67981;51.022;-2.870;2024-02-15T06:47:49;7.03;;;2.90;;
78664;SDS011;67981;51.022;-2.870;2024-02-15T06:50:14;14.75;;;3.35;;
78664;SDS011;67981;51.022;-2.870;2024-02-15T06:52:41;9.15;;;3.17;;
78664;SDS011;67981;51.022;-2.870;2024-02-15T06:55:06;7.68;;;2.50;;
78664;SDS011;67981;51.022;-2.870;2024-02-15T06:57:33;11.35;;;3.10;;
78664;SDS011;67981;51.022;-2.870;2024-02-15T06:59:58;13.68;;;3.45;;
78664;SDS011;67981;51.022;-2.870;2024-02-15T07:02:24;10.73;;;2.92;;
78664;SDS011;67981;51.022;-2.870;2024-02-15T07:04:49;8.30;;;2.80;;
78664;SDS011;67981;51.022;-2.870;2024-02-15T07:07:16;9.77;;;3.38;;
78664;SDS011;67981;51.022;-2.870;2024-02-15T07:09:42;9.00;;;2.73;;
78664;SDS011;67981;51.022;-2.870;2024-02-15T07:12:07;9.13;;;3.00;;
78664;SDS011;67981;51.022;-2.870;2024-02-15T07:14:32;7.43;;;4.07;;
78664;SDS011;67981;51.022;-2.870;2024-02-15T07:16:58;9.37;;;3.33;;
78664;SDS011;67981;51.022;-2.870;2024-02-15T07:19:23;7.40;;;2.78;;
78664;SDS011;67981;51.022;-2.870;2024-02-15T07:21:48;9.27;;;2.60;;
78664;SDS011;67981;51.022;-2.870;2024-02-15T07:24:14;13.53;;;2.93;;
78664;SDS011;67981;51.022;-2.870;2024-02-15T07:26:39;10.37;;;2.60;;
78664;SDS011;67981;51.022;-2.870;2024-02-15T07:29:04;7.80;;;3.30;;
78664;SDS011;67981;51.022;-2.870;2024-02-15T07:31:33;13.48;;;3.60;;
78664;SDS011;67981;51.022;-2.870;2024-02-15T07:33:58;11.60;;;3.47;;
78664;SDS011;67981;51.022;-2.870;2024-02-15T07:36:24;7.60;;;3.63;;
78664;SDS011;67981;51.022;-2.870;2024-02-15T07:38:51;13.68;;;3.85;;
78664;SDS011;67981;51.022;-2.870;2024-02-15T07:41:22;7.60;;;3.55;;
78664;SDS011;67981;51.022;-2.870;2024-02-15T07:43:49;11.48;;;3.67;;
78664;SDS011;67981;51.022;-2.870;2024-02-15T07:46:15;11.85;;;4.22;;
78664;SDS011;67981;51.022;-2.870;2024-02-15T07:48:44;8.27;;;3.88;;
78664;SDS011;67981;51.022;-2.870;2024-02-15T07:51:13;9.63;;;3.70;;
78664;SDS011;67981;51.022;-2.870;2024-02-15T07:53:38;7.65;;;4.03;;
78664;SDS011;67981;51.022;-2.870;2024-02-15T07:56:05;14.63;;;3.55;;
78664;SDS011;67981;51.022;-2.870;2024-02-15T07:58:30;8.85;;;4.07;;
78664;SDS011;67981;51.022;-2.870;2024-02-15T08:00:56;8.32;;;3.25;;
78664;SDS011;67981;51.022;-2.870;2024-02-15T08:03:21;8.20;;;3.67;;
78664;SDS011;67981;51.022;-2.870;2024-02-15T08:05:47;12.10;;;4.07;;
78664;SDS011;67981;51.022;-2.870;2024-02-15T08:08:12;7.85;;;3.42;;
78664;SDS011;67981;51.022;-2.870;2024-02-15T08:10:37;7.47;;;3.30;;
78664;SDS011;67981;51.022;-2.870;2024-02-15T08:13:03;5.07;;;2.83;;
78664;SDS011;67981;51.022;-2.870;2024-02-15T08:15:28;10.37;;;3.60;;
78664;SDS011;67981;51.022;-2.870;2024-02-15T08:17:53;13.77;;;3.72;;
78664;SDS011;67981;51.022;-2.870;2024-02-15T08:20:20;6.38;;;2.97;;
78664;SDS011;67981;51.022;-2.870;2024-02-15T08:22:46;9.32;;;5.10;;
78664;SDS011;67981;51.022;-2.870;2024-02-15T08:25:12;12.77;;;3.45;;
78664;SDS011;67981;51.022;-2.870;2024-02-15T08:27:41;8.65;;;4.97;;
78664;SDS011;67981;51.022;-2.870;2024-02-15T08:30:09;8.60;;;4.20;;
78664;SDS011;67981;51.022;-2.870;2024-02-15T08:32:34;7.13;;;3.10;;
78664;SDS011;67981;51.022;-2.870;2024-02-15T08:35:00;8.45;;;3.13;;
78664;SDS011;67981;51.022;-2.870;2024-02-15T08:37:25;8.02;;;3.30;;
78664;SDS011;67981;51.022;-2.870;2024-02-15T08:39:50;7.13;;;3.70;;
78664;SDS011;67981;51.022;-2.870;2024-02-15T08:42:17;7.03;;;3.67;;
78664;SDS011;67981;51.022;-2.870;2024-02-15T08:44:47;6.90;;;3.25;;
78664;SDS011;67981;51.022;-2.870;2024-02-15T08:47:12;9.00;;;3.17;;
78664;SDS011;67981;51.022;-2.870;2024-02-15T08:49:37;8.50;;;3.47;;
78664;SDS011;67981;51.022;-2.870;2024-02-15T08:52:05;9.18;;;3.47;;
78664;SDS011;67981;51.022;-2.870;2024-02-15T08:54:32;9.52;;;2.78;;
78664;SDS011;67981;51.022;-2.870;2024-02-15T08:56:57;7.93;;;3.17;;
78664;SDS011;67981;51.022;-2.870;2024-02-15T08:59:23;5.40;;;2.17;;
78664;SDS011;67981;51.022;-2.870;2024-02-15T09:01:50;7.55;;;3.33;;
78664;SDS011;67981;51.022;-2.870;2024-02-15T09:04:15;7.40;;;4.38;;
78664;SDS011;67981;51.022;-2.870;2024-02-15T09:06:40;7.67;;;3.17;;
78664;SDS011;67981;51.022;-2.870;2024-02-15T09:09:06;10.02;;;4.47;;
78664;SDS011;67981;51.022;-2.870;2024-02-15T09:11:31;6.67;;;3.57;;
78664;SDS011;67981;51.022;-2.870;2024-02-15T09:13:56;6.30;;;2.85;;
78664;SDS011;67981;51.022;-2.870;2024-02-15T09:16:22;10.23;;;3.23;;
78664;SDS011;67981;51.022;-2.870;2024-02-15T09:18:47;8.05;;;4.28;;
78664;SDS011;67981;51.022;-2.870;2024-02-15T09:21:12;12.57;;;6.27;;
78664;SDS011;67981;51.022;-2.870;2024-02-15T09:23:39;10.15;;;5.80;;
78664;SDS011;67981;51.022;-2.870;2024-02-15T09:26:04;7.23;;;3.77;;
78664;SDS011;67981;51.022;-2.870;2024-02-15T09:28:29;9.70;;;4.80;;
78664;SDS011;67981;51.022;-2.870;2024-02-15T09:30:56;11.07;;;4.63;;
78664;SDS011;67981;51.022;-2.870;2024-02-15T09:35:49;11.35;;;5.53;;
78664;SDS011;67981;51.022;-2.870;2024-02-15T09:38:14;6.13;;;3.20;;
78664;SDS011;67981;51.022;-2.870;2024-02-15T09:40:42;8.93;;;3.58;;
78664;SDS011;67981;51.022;-2.870;2024-02-15T09:43:08;8.35;;;4.85;;
78664;SDS011;67981;51.022;-2.870;2024-02-15T09:45:34;9.30;;;5.60;;
78664;SDS011;67981;51.022;-2.870;2024-02-15T09:48:01;7.90;;;5.30;;
78664;SDS011;67981;51.022;-2.870;2024-02-15T09:50:29;8.75;;;6.25;;
78664;SDS011;67981;51.022;-2.870;2024-02-15T09:52:56;9.95;;;6.72;;
78664;SDS011;67981;51.022;-2.870;2024-02-15T09:55:22;7.95;;;4.55;;
78664;SDS011;67981;51.022;-2.870;2024-02-15T09:57:48;6.68;;;3.00;;
78664;SDS011;67981;51.022;-2.870;2024-02-15T10:00:15;8.02;;;3.45;;
78664;SDS011;67981;51.022;-2.870;2024-02-15T10:02:41;13.40;;;4.00;;
78664;SDS011;67981;51.022;-2.870;2024-02-15T10:05:09;7.63;;;3.47;;
78664;SDS011;67981;51.022;-2.870;2024-02-15T10:07:41;9.35;;;3.33;;
78664;SDS011;67981;51.022;-2.870;2024-02-15T10:10:18;8.02;;;3.30;;
78664;SDS011;67981;51.022;-2.870;2024-02-15T10:12:45;10.55;;;3.28;;
78664;SDS011;67981;51.022;-2.870;2024-02-15T10:15:26;9.57;;;3.17;;
78664;SDS011;67981;51.022;-2.870;2024-02-15T10:17:55;8.07;;;2.95;;
78664;SDS011;67981;51.022;-2.870;2024-02-15T10:20:20;10.52;;;3.85;;
78664;SDS011;67981;51.022;-2.870;2024-02-15T10:22:46;8.67;;;2.93;;
78664;SDS011;67981;51.022;-2.870;2024-02-15T10:25:14;10.10;;;3.43;;
78664;SDS011;67981;51.022;-2.870;2024-02-15T10:27:40;8.40;;;4.10;;
78664;SDS011;67981;51.022;-2.870;2024-02-15T10:30:13;7.57;;;3.33;;
78664;SDS011;67981;51.022;-2.870;2024-02-15T10:32:40;4.45;;;3.47;;
78664;SDS011;67981;51.022;-2.870;2024-02-15T10:35:05;7.27;;;3.53;;
78664;SDS011;67981;51.022;-2.870;2024-02-15T10:37:30;11.35;;;2.95;;
78664;SDS011;67981;51.022;-2.870;2024-02-15T10:40:05;15.60;;;3.58;;
78664;SDS011;67981;51.022;-2.870;2024-02-15T10:42:34;13.18;;;3.47;;
78664;SDS011;67981;51.022;-2.870;2024-02-15T10:45:03;8.65;;;3.33;;
78664;SDS011;67981;51.022;-2.870;2024-02-15T10:50:02;8.82;;;3.38;;
78664;SDS011;67981;51.022;-2.870;2024-02-15T10:52:28;9.82;;;3.70;;
78664;SDS011;67981;51.022;-2.870;2024-02-15T10:55:05;8.38;;;3.22;;
78664;SDS011;67981;51.022;-2.870;2024-02-15T10:57:38;7.97;;;3.53;;
78664;SDS011;67981;51.022;-2.870;2024-02-15T11:00:04;7.22;;;3.33;;
78664;SDS011;67981;51.022;-2.870;2024-02-15T11:02:54;13.15;;;5.22;;
78664;SDS011;67981;51.022;-2.870;2024-02-15T11:05:27;17.75;;;5.35;;
78664;SDS011;67981;51.022;-2.870;2024-02-15T11:07:54;14.63;;;5.70;;
78664;SDS011;67981;51.022;-2.870;2024-02-15T11:10:20;8.75;;;4.35;;
78664;SDS011;67981;51.022;-2.870;2024-02-15T11:12:46;8.27;;;3.22;;
78664;SDS011;67981;51.022;-2.870;2024-02-15T11:15:12;12.10;;;5.90;;
78664;SDS011;67981;51.022;-2.870;2024-02-15T11:17:58;7.43;;;3.78;;
78664;SDS011;67981;51.022;-2.870;2024-02-15T11:22:58;8.38;;;3.72;;
78664;SDS011;67981;51.022;-2.870;2024-02-15T11:25:33;10.25;;;3.20;;
78664;SDS011;67981;51.022;-2.870;2024-02-15T11:28:44;7.57;;;3.75;;
78664;SDS011;67981;51.022;-2.870;2024-02-15T11:30:44;9.30;;;4.25;;
78664;SDS011;67981;51.022;-2.870;2024-02-15T11:33:44;11.00;;;4.05;;
78664;SDS011;67981;51.022;-2.870;2024-02-15T11:36:07;9.35;;;3.85;;
78664;SDS011;67981;51.022;-2.870;2024-02-15T11:38:33;10.60;;;5.00;;
78664;SDS011;67981;51.022;-2.870;2024-02-15T11:41:00;12.57;;;3.90;;
78664;SDS011;67981;51.022;-2.870;2024-02-15T11:46:21;8.48;;;3.92;;
78664;SDS011;67981;51.022;-2.870;2024-02-15T11:48:47;11.80;;;3.72;;
78664;SDS011;67981;51.022;-2.870;2024-02-15T11:54:03;7.90;;;3.55;;
78664;SDS011;67981;51.022;-2.870;2024-02-15T11:59:09;9.23;;;3.88;;
78664;SDS011;67981;51.022;-2.870;2024-02-15T12:01:43;7.75;;;4.05;;
78664;SDS011;67981;51.022;-2.870;2024-02-15T12:04:27;9.30;;;4.50;;
78664;SDS011;67981;51.022;-2.870;2024-02-15T12:07:13;10.82;;;3.88;;
78664;SDS011;67981;51.022;-2.870;2024-02-15T12:10:00;11.40;;;3.63;;
78664;SDS011;67981;51.022;-2.870;2024-02-15T12:12:51;9.90;;;4.15;;
78664;SDS011;67981;51.022;-2.870;2024-02-15T12:15:35;13.13;;;6.07;;
78664;SDS011;67981;51.022;-2.870;2024-02-15T12:18:19;12.13;;;4.35;;
78664;SDS011;67981;51.022;-2.870;2024-02-15T12:21:03;8.80;;;3.92;;
78664;SDS011;67981;51.022;-2.870;2024-02-15T12:23:29;15.00;;;7.20;;
78664;SDS011;67981;51.022;-2.870;2024-02-15T12:25:58;10.05;;;4.65;;
78664;SDS011;67981;51.022;-2.870;2024-02-15T12:28:23;8.93;;;3.58;;
78664;SDS011;67981;51.022;-2.870;2024-02-15T12:30:54;10.13;;;4.63;;
78664;SDS011;67981;51.022;-2.870;2024-02-15T12:33:19;10.40;;;4.10;;
78664;SDS011;67981;51.022;-2.870;2024-02-15T12:35:46;13.88;;;4.97;;
78664;SDS011;67981;51.022;-2.870;2024-02-15T12:38:14;7.93;;;3.70;;
78664;SDS011;67981;51.022;-2.870;2024-02-15T12:40:41;14.02;;;3.67;;
78664;SDS011;67981;51.022;-2.870;2024-02-15T12:43:07;11.52;;;4.45;;
78664;SDS011;67981;51.022;-2.870;2024-02-15T12:45:36;7.07;;;3.65;;
78664;SDS011;67981;51.022;-2.870;2024-02-15T12:48:03;11.57;;;5.00;;
78664;SDS011;67981;51.022;-2.870;2024-02-15T12:50:29;16.13;;;4.28;;
78664;SDS011;67981;51.022;-2.870;2024-02-15T12:52:54;12.07;;;3.80;;
78664;SDS011;67981;51.022;-2.870;2024-02-15T12:55:31;5.82;;;3.05;;
78664;SDS011;67981;51.022;-2.870;2024-02-15T12:57:59;13.75;;;4.28;;
78664;SDS011;67981;51.022;-2.870;2024-02-15T13:00:28;7.32;;;3.47;;
78664;SDS011;67981;51.022;-2.870;2024-02-15T13:02:54;9.20;;;3.88;;
78664;SDS011;67981;51.022;-2.870;2024-02-15T13:05:20;10.88;;;3.90;;
78664;SDS011;67981;51.022;-2.870;2024-02-15T13:07:50;11.13;;;4.05;;
78664;SDS011;67981;51.022;-2.870;2024-02-15T13:10:16;7.57;;;4.05;;
78664;SDS011;67981;51.022;-2.870;2024-02-15T13:12:41;11.98;;;4.82;;
78664;SDS011;67981;51.022;-2.870;2024-02-15T13:15:08;10.18;;;3.95;;
78664;SDS011;67981;51.022;-2.870;2024-02-15T13:17:37;9.32;;;4.05;;
78664;SDS011;67981;51.022;-2.870;2024-02-15T13:20:02;13.07;;;3.30;;
78664;SDS011;67981;51.022;-2.870;2024-02-15T13:22:32;9.50;;;3.58;;
78664;SDS011;67981;51.022;-2.870;2024-02-15T13:24:58;14.50;;;6.70;;
78664;SDS011;67981;51.022;-2.870;2024-02-15T13:27:23;7.80;;;4.18;;
78664;SDS011;67981;51.022;-2.870;2024-02-15T13:29:49;8.90;;;3.50;;
78664;SDS011;67981;51.022;-2.870;2024-02-15T13:32:15;7.65;;;3.60;;
78664;SDS011;67981;51.022;-2.870;2024-02-15T13:34:42;8.48;;;4.45;;
78664;SDS011;67981;51.022;-2.870;2024-02-15T13:37:07;15.90;;;4.85;;
78664;SDS011;67981;51.022;-2.870;2024-02-15T13:39:32;8.63;;;4.40;;
78664;SDS011;67981;51.022;-2.870;2024-02-15T13:41:58;12.87;;;3.47;;
78664;SDS011;67981;51.022;-2.870;2024-02-15T13:44:24;9.23;;;4.65;;
78664;SDS011;67981;51.022;-2.870;2024-02-15T13:46:49;16.77;;;5.05;;
78664;SDS011;67981;51.022;-2.870;2024-02-15T13:49:15;10.80;;;5.55;;
78664;SDS011;67981;51.022;-2.870;2024-02-15T13:51:40;11.80;;;3.93;;
78664;SDS011;67981;51.022;-2.870;2024-02-15T13:54:05;8.67;;;5.00;;
78664;SDS011;67981;51.022;-2.870;2024-02-15T13:56:30;15.97;;;6.60;;
78664;SDS011;67981;51.022;-2.870;2024-02-15T13:58:56;15.97;;;8.60;;
78664;SDS011;67981;51.022;-2.870;2024-02-15T14:01:21;14.67;;;8.30;;
78664;SDS011;67981;51.022;-2.870;2024-02-15T14:03:46;42.90;;;21.90;;
78664;SDS011;67981;51.022;-2.870;2024-02-15T14:06:12;25.98;;;10.23;;
78664;SDS011;67981;51.022;-2.870;2024-02-15T14:08:37;16.55;;;7.38;;
78664;SDS011;67981;51.022;-2.870;2024-02-15T14:11:02;11.43;;;5.53;;
78664;SDS011;67981;51.022;-2.870;2024-02-15T14:13:28;14.35;;;9.38;;
78664;SDS011;67981;51.022;-2.870;2024-02-15T14:15:55;14.65;;;6.22;;
78664;SDS011;67981;51.022;-2.870;2024-02-15T14:18:21;10.95;;;5.47;;
78664;SDS011;67981;51.022;-2.870;2024-02-15T14:20:46;14.53;;;4.37;;
78664;SDS011;67981;51.022;-2.870;2024-02-15T14:23:12;7.40;;;5.15;;
78664;SDS011;67981;51.022;-2.870;2024-02-15T14:25:40;17.23;;;7.22;;
78664;SDS011;67981;51.022;-2.870;2024-02-15T14:28:05;11.25;;;4.68;;
78664;SDS011;67981;51.022;-2.870;2024-02-15T14:30:33;10.32;;;4.25;;
78664;SDS011;67981;51.022;-2.870;2024-02-15T14:33:17;8.68;;;4.57;;
78664;SDS011;67981;51.022;-2.870;2024-02-15T14:35:44;11.05;;;4.82;;
78664;SDS011;67981;51.022;-2.870;2024-02-15T14:38:10;7.40;;;4.47;;
78664;SDS011;67981;51.022;-2.870;2024-02-15T14:40:36;8.45;;;4.65;;
78664;SDS011;67981;51.022;-2.870;2024-02-15T14:43:02;12.18;;;5.78;;
78664;SDS011;67981;51.022;-2.870;2024-02-15T14:45:29;8.77;;;4.88;;
78664;SDS011;67981;51.022;-2.870;2024-02-15T14:47:56;10.82;;;4.30;;